Time;durP1;ratioP1;P1;durP2;ratioP2;P2;SDS_P1;SDS_P2;PMS_P1;PMS_P2;Temp;Humidity;BMP_temperature;BMP_pressure;BME280_temperature;BME280_humidity;BME280_pressure;Samples;Min_cycle;Max_cycle;Signal;HPM_P1;HPM_P2
2021/12/24 00:00:05;;;;;;;18.27;11.10;;;10.50;99.90;;;;;;5033326;28;20051;-75
2021/12/24 00:02:30;;;;;;;30.27;12.45;;;10.40;99.90;;;;;;5033231;28;20528;-75
2021/12/24 00:04:56;;;;;;;24.42;13.38;;;10.40;99.90;;;;;;5033544;28;20029;-75
2021/12/24 00:07:22;;;;;;;27.33;14.82;;;10.40;99.90;;;;;;5033492;28;20064;-76
2021/12/24 00:09:47;;;;;;;21.02;12.63;;;10.30;99.90;;;;;;5033495;28;20025;-76
2021/12/24 00:12:18;;;;;;;26.38;13.32;;;10.30;99.90;;;;;;5033214;28;20075;-75
2021/12/24 00:14:49;;;;;;;25.90;12.88;;;10.30;99.90;;;;;;5033502;28;20026;-76
2021/12/24 00:17:17;;;;;;;22.98;11.25;;;10.20;99.90;;;;;;5033470;28;20017;-76
2021/12/24 00:20:02;;;;;;;29.67;15.13;;;10.30;99.90;;;;;;5033141;28;20619;-77
2021/12/24 00:36:08;;;;;;;21.17;11.70;;;10.40;99.90;;;;;;5033309;28;20033;-77
2021/12/24 00:38:34;;;;;;;21.80;11.10;;;10.40;99.90;;;;;;5032999;28;20025;-76
2021/12/24 00:40:59;;;;;;;19.77;10.95;;;10.40;99.90;;;;;;5032909;28;20501;-77
2021/12/24 00:43:25;;;;;;;25.17;13.48;;;10.30;99.90;;;;;;5032964;28;20389;-76
2021/12/24 00:45:51;;;;;;;31.33;18.33;;;10.30;99.90;;;;;;5033487;28;20025;-76
2021/12/24 00:48:19;;;;;;;25.08;15.52;;;10.30;99.90;;;;;;5032862;28;20024;-78
2021/12/24 00:51:06;;;;;;;23.20;16.42;;;10.30;99.90;;;;;;5032873;28;20020;-77
2021/12/24 00:55:59;;;;;;;29.60;18.85;;;10.20;99.90;;;;;;5035584;28;20018;-78
2021/12/24 00:58:24;;;;;;;42.95;29.27;;;10.20;99.90;;;;;;5036588;28;20113;-76
2021/12/24 01:00:51;;;;;;;42.42;27.65;;;10.20;99.90;;;;;;5036467;28;20108;-77
2021/12/24 01:03:17;;;;;;;44.55;31.80;;;10.20;99.90;;;;;;5036533;28;20025;-76
2021/12/24 01:05:42;;;;;;;36.28;22.48;;;10.10;99.90;;;;;;5036449;28;20486;-75
2021/12/24 01:08:10;;;;;;;40.67;28.35;;;10.10;99.90;;;;;;5036446;28;20064;-77
2021/12/24 01:10:45;;;;;;;31.17;21.50;;;10.10;99.90;;;;;;5036349;28;20017;-77
2021/12/24 01:13:11;;;;;;;25.25;13.88;;;10.20;99.90;;;;;;5036924;28;20033;-75
2021/12/24 01:15:49;;;;;;;26.10;14.20;;;10.10;99.90;;;;;;5036320;28;20168;-76
2021/12/24 01:18:31;;;;;;;30.88;12.77;;;10.10;99.90;;;;;;5036226;28;20493;-76
2021/12/24 01:21:22;;;;;;;24.38;11.57;;;10.10;99.90;;;;;;5034567;28;20025;-76
2021/12/24 01:23:51;;;;;;;22.33;11.40;;;10.20;99.90;;;;;;5036199;28;20025;-76
2021/12/24 01:42:41;;;;;;;35.08;18.45;;;10.20;99.90;;;;;;5035466;28;20079;-76
2021/12/24 01:45:13;;;;;;;26.60;16.20;;;10.20;99.90;;;;;;5036055;28;20026;-77
2021/12/24 01:47:39;;;;;;;43.50;26.85;;;10.20;99.90;;;;;;5035706;28;20048;-76
2021/12/24 01:50:05;;;;;;;34.15;21.77;;;10.20;99.90;;;;;;5035659;28;20021;-76
2021/12/24 01:52:30;;;;;;;27.80;14.43;;;10.20;99.90;;;;;;5035616;28;20036;-79
2021/12/24 01:54:56;;;;;;;24.80;12.68;;;10.20;99.90;;;;;;5035584;28;20394;-77
2021/12/24 01:57:22;;;;;;;55.63;37.00;;;10.20;99.90;;;;;;5035807;28;20032;-76
2021/12/24 01:59:48;;;;;;;27.25;16.30;;;10.20;99.90;;;;;;5035731;28;20497;-77
2021/12/24 02:02:14;;;;;;;27.92;15.27;;;10.20;99.90;;;;;;5035334;28;20029;-76
2021/12/24 02:04:39;;;;;;;26.10;11.15;;;10.20;99.90;;;;;;5035427;28;20048;-77
2021/12/24 02:07:05;;;;;;;24.48;12.45;;;10.30;99.90;;;;;;5034432;28;20410;-79
2021/12/24 02:09:31;;;;;;;22.48;11.90;;;10.30;99.90;;;;;;5035538;28;20063;-76
2021/12/24 02:11:57;;;;;;;24.35;14.20;;;10.30;99.90;;;;;;5035542;28;20075;-76
2021/12/24 02:14:30;;;;;;;22.25;12.38;;;10.30;99.90;;;;;;5035531;28;20026;-76
2021/12/24 02:17:22;;;;;;;28.15;15.55;;;10.30;99.90;;;;;;5035248;28;20032;-77
2021/12/24 02:30:43;;;;;;;25.33;15.43;;;10.30;99.90;;;;;;5035210;28;20044;-76
2021/12/24 02:33:09;;;;;;;25.75;15.90;;;10.30;99.90;;;;;;5035127;28;20037;-76
2021/12/24 02:35:35;;;;;;;23.42;14.48;;;10.30;99.90;;;;;;5034798;28;20017;-77
2021/12/24 02:38:02;;;;;;;24.85;15.48;;;10.30;99.90;;;;;;5035307;28;20072;-77
2021/12/24 02:40:28;;;;;;;25.42;16.50;;;10.30;99.90;;;;;;5035000;28;20059;-76
2021/12/24 02:42:56;;;;;;;28.30;17.42;;;10.40;99.90;;;;;;5034846;28;20029;-77
2021/12/24 02:45:23;;;;;;;24.38;14.25;;;10.40;99.90;;;;;;5034654;28;20052;-77
2021/12/24 02:56:04;;;;;;;25.92;13.90;;;10.40;99.90;;;;;;5034962;28;20516;-76
2021/12/24 02:58:40;;;;;;;31.08;15.38;;;10.50;99.90;;;;;;5034354;28;20053;-77
2021/12/24 03:01:07;;;;;;;26.60;13.82;;;10.40;99.90;;;;;;5034215;28;20508;-77
2021/12/24 03:03:32;;;;;;;37.38;19.05;;;10.40;99.90;;;;;;5034267;28;20433;-77
2021/12/24 03:05:59;;;;;;;26.80;15.73;;;10.40;99.90;;;;;;5034502;28;20017;-77
2021/12/24 03:08:24;;;;;;;28.80;19.75;;;10.50;99.90;;;;;;5034132;28;20112;-76
2021/12/24 03:10:52;;;;;;;19.63;11.63;;;10.50;99.90;;;;;;5034112;28;20100;-78
2021/12/24 03:13:18;;;;;;;22.58;14.07;;;10.50;99.90;;;;;;5034368;28;20044;-77
2021/12/24 03:15:47;;;;;;;22.33;13.82;;;10.50;99.90;;;;;;5034319;28;20022;-77
2021/12/24 03:18:13;;;;;;;27.52;17.30;;;10.50;99.90;;;;;;5033648;28;20021;-76
2021/12/24 03:20:38;;;;;;;25.50;18.60;;;10.50;99.90;;;;;;5034136;28;20382;-77
2021/12/24 03:23:09;;;;;;;29.02;17.75;;;10.50;99.90;;;;;;5034175;28;20112;-77
2021/12/24 03:25:36;;;;;;;21.23;14.32;;;10.60;99.90;;;;;;5033902;28;20024;-77
2021/12/24 03:28:01;;;;;;;22.88;12.63;;;10.60;99.90;;;;;;5033852;28;20022;-78
2021/12/24 03:30:27;;;;;;;29.80;22.08;;;10.60;99.90;;;;;;5033336;28;20060;-77
2021/12/24 03:32:53;;;;;;;35.63;24.45;;;10.60;99.90;;;;;;5033749;28;20095;-76
2021/12/24 03:35:19;;;;;;;37.30;27.13;;;10.60;99.90;;;;;;5033579;28;20490;-77
2021/12/24 03:37:45;;;;;;;18.67;11.90;;;10.60;99.90;;;;;;5033640;28;20399;-77
2021/12/24 03:40:11;;;;;;;19.25;13.00;;;10.60;99.90;;;;;;5033638;28;20021;-76
2021/12/24 03:42:39;;;;;;;16.20;8.77;;;10.60;99.90;;;;;;5033542;28;20107;-76
2021/12/24 03:45:27;;;;;;;18.40;10.18;;;10.60;99.90;;;;;;5033857;28;20052;-77
2021/12/24 03:47:58;;;;;;;14.45;8.60;;;10.60;99.90;;;;;;5033806;28;20429;-77
2021/12/24 03:50:37;;;;;;;15.80;10.43;;;10.60;99.90;;;;;;5033828;28;20355;-76
2021/12/24 03:54:55;;;;;;;17.20;11.25;;;10.60;99.90;;;;;;5033476;28;20039;-76
2021/12/24 03:55:48;;;;;;;17.92;10.63;;;10.60;99.90;;;;;;5033077;28;20051;-78
2021/12/24 03:58:14;;;;;;;13.57;9.05;;;10.60;99.90;;;;;;5033630;28;20478;-77
2021/12/24 04:00:39;;;;;;;17.98;10.07;;;10.60;99.90;;;;;;5033550;28;20120;-76
2021/12/24 04:03:05;;;;;;;17.17;9.60;;;10.60;99.90;;;;;;5033584;28;20103;-77
2021/12/24 04:05:31;;;;;;;17.95;10.18;;;10.60;99.90;;;;;;5033581;28;20025;-75
2021/12/24 04:07:56;;;;;;;19.48;11.05;;;10.60;99.90;;;;;;5033259;28;20032;-76
2021/12/24 04:12:48;;;;;;;14.70;7.85;;;10.60;99.90;;;;;;5033252;28;20025;-76
2021/12/24 04:15:14;;;;;;;17.42;9.25;;;10.60;99.90;;;;;;5033176;28;20029;-78
2021/12/24 04:17:41;;;;;;;15.88;9.38;;;10.60;99.90;;;;;;5033469;28;20486;-76
2021/12/24 04:25:29;;;;;;;16.88;8.75;;;10.60;99.90;;;;;;5033853;28;20504;-76
2021/12/24 04:27:58;;;;;;;14.77;8.77;;;10.50;99.90;;;;;;5033362;28;20032;-77
2021/12/24 04:30:29;;;;;;;16.70;8.15;;;10.50;99.90;;;;;;5034621;28;20138;-77
2021/12/24 04:51:28;;;;;;;14.68;6.63;;;10.40;99.90;;;;;;5037026;28;20437;-77
2021/12/24 05:02:44;;;;;;;8.65;5.25;;;10.50;99.90;;;;;;5054315;28;20033;-76
2021/12/24 05:05:19;;;;;;;11.25;5.53;;;10.40;99.90;;;;;;5054047;28;20021;-77
2021/12/24 05:10:21;;;;;;;8.93;5.53;;;10.30;99.90;;;;;;5036191;28;20489;-77
2021/12/24 05:12:47;;;;;;;10.98;5.43;;;10.30;99.90;;;;;;5036479;28;20112;-78
2021/12/24 05:15:13;;;;;;;15.15;8.05;;;10.30;99.90;;;;;;5036365;28;20134;-78
2021/12/24 05:18:07;;;;;;;9.98;6.18;;;10.30;99.90;;;;;;5036283;28;20413;-76
2021/12/24 05:23:17;;;;;;;10.80;5.70;;;10.30;99.90;;;;;;5036626;28;20083;-78
2021/12/24 05:25:45;;;;;;;10.75;5.55;;;10.30;99.90;;;;;;5036415;28;20170;-77
2021/12/24 05:28:12;;;;;;;9.25;4.93;;;10.30;99.90;;;;;;5035802;28;20390;-77
2021/12/24 05:30:38;;;;;;;11.45;5.75;;;10.30;99.90;;;;;;5036009;28;20037;-76
2021/12/24 05:33:04;;;;;;;10.18;5.10;;;10.30;99.90;;;;;;5034715;28;20532;-76
2021/12/24 05:35:30;;;;;;;10.18;5.85;;;10.20;99.90;;;;;;5035951;28;20033;-78
2021/12/24 05:37:56;;;;;;;9.10;5.32;;;10.20;99.90;;;;;;5035899;28;20068;-76
2021/12/24 05:40:21;;;;;;;12.50;6.22;;;10.10;99.90;;;;;;5035670;28;20087;-76
2021/12/24 05:42:47;;;;;;;10.35;5.55;;;10.10;99.90;;;;;;5035764;28;20436;-77
2021/12/24 05:45:13;;;;;;;12.48;5.80;;;10.10;99.90;;;;;;5035728;28;20051;-79
2021/12/24 05:47:38;;;;;;;10.20;5.35;;;10.10;99.90;;;;;;5035746;28;20044;-75
2021/12/24 05:50:05;;;;;;;9.70;4.72;;;10.20;99.90;;;;;;5035713;28;20477;-78
2021/12/24 05:52:32;;;;;;;8.50;4.28;;;10.20;99.90;;;;;;5035672;28;20029;-77
2021/12/24 05:54:58;;;;;;;8.35;4.63;;;10.20;99.90;;;;;;5035901;28;20083;-76
2021/12/24 05:57:23;;;;;;;9.23;4.82;;;10.20;99.90;;;;;;5035613;28;20057;-76
2021/12/24 05:59:49;;;;;;;9.18;4.70;;;10.10;99.90;;;;;;5035554;28;20496;-75
2021/12/24 06:02:15;;;;;;;11.40;5.40;;;10.20;99.90;;;;;;5035642;28;20096;-78
2021/12/24 06:04:41;;;;;;;11.75;5.18;;;10.20;99.90;;;;;;5035454;28;20506;-78
2021/12/24 06:07:06;;;;;;;9.82;4.50;;;10.10;99.90;;;;;;5035357;28;20017;-77
2021/12/24 06:09:32;;;;;;;9.30;5.05;;;10.20;99.90;;;;;;5035361;28;20025;-76
2021/12/24 06:11:58;;;;;;;8.35;4.60;;;10.20;99.90;;;;;;5035844;28;20045;-76
2021/12/24 06:14:23;;;;;;;8.25;5.40;;;10.20;99.90;;;;;;5035268;28;20029;-76
2021/12/24 06:17:01;;;;;;;8.77;5.22;;;10.30;99.90;;;;;;5035499;28;20025;-77
2021/12/24 06:19:28;;;;;;;9.35;5.47;;;10.30;99.90;;;;;;5033646;28;20112;-78
2021/12/24 06:21:55;;;;;;;8.77;5.25;;;10.30;99.90;;;;;;5035022;28;20040;-77
2021/12/24 06:24:20;;;;;;;11.77;5.30;;;10.30;99.90;;;;;;5035131;28;20044;-76
2021/12/24 06:26:47;;;;;;;10.07;5.88;;;10.30;99.90;;;;;;5035259;28;20521;-76
2021/12/24 06:29:13;;;;;;;9.57;5.18;;;10.40;99.90;;;;;;5035078;28;20053;-77
2021/12/24 06:31:38;;;;;;;9.73;5.15;;;10.40;99.90;;;;;;5034902;28;20033;-77
2021/12/24 06:34:04;;;;;;;10.07;5.28;;;10.40;99.90;;;;;;5034849;28;20466;-78
2021/12/24 06:36:37;;;;;;;11.73;5.80;;;10.40;99.90;;;;;;5034825;28;20394;-78
2021/12/24 06:39:06;;;;;;;10.30;5.88;;;10.50;99.90;;;;;;5035369;28;20025;-78
2021/12/24 06:41:33;;;;;;;14.32;6.82;;;10.30;99.90;;;;;;5034657;28;20022;-76
2021/12/24 06:43:59;;;;;;;13.85;8.43;;;10.20;99.90;;;;;;5034686;28;20025;-76
2021/12/24 06:46:25;;;;;;;13.07;7.25;;;10.20;99.90;;;;;;5034648;28;20477;-76
2021/12/24 06:48:56;;;;;;;12.88;6.07;;;10.20;99.90;;;;;;5034567;28;20130;-76
2021/12/24 06:51:25;;;;;;;15.10;6.45;;;10.20;99.90;;;;;;5034558;28;20021;-76
2021/12/24 06:53:50;;;;;;;12.50;7.40;;;10.30;99.90;;;;;;5033841;28;20079;-76
2021/12/24 06:56:17;;;;;;;14.32;7.30;;;10.20;99.90;;;;;;5034442;28;20021;-76
2021/12/24 06:58:42;;;;;;;11.15;5.93;;;10.20;99.90;;;;;;5034349;28;20033;-76
2021/12/24 07:01:08;;;;;;;15.18;8.93;;;10.20;99.90;;;;;;5034267;28;20032;-77
2021/12/24 07:03:34;;;;;;;12.23;5.80;;;10.20;99.90;;;;;;5034319;28;20032;-76
2021/12/24 07:06:00;;;;;;;12.68;6.22;;;10.20;99.90;;;;;;5034593;28;20017;-76
2021/12/24 07:08:26;;;;;;;12.90;6.28;;;10.20;99.90;;;;;;5034214;28;20505;-78
2021/12/24 07:10:52;;;;;;;12.15;6.10;;;10.10;99.90;;;;;;5034446;28;20021;-77
2021/12/24 07:13:18;;;;;;;11.20;5.80;;;10.10;99.90;;;;;;5034121;28;20025;-78
2021/12/24 07:15:43;;;;;;;10.70;6.50;;;10.10;99.90;;;;;;5034069;28;20021;-77
2021/12/24 07:18:09;;;;;;;11.20;6.47;;;10.10;99.90;;;;;;5034288;28;20152;-77
2021/12/24 07:20:35;;;;;;;13.05;6.47;;;10.10;99.90;;;;;;5032695;28;20029;-76
2021/12/24 07:23:01;;;;;;;33.85;19.55;;;10.10;99.90;;;;;;5033844;28;20029;-77
2021/12/24 07:25:26;;;;;;;13.48;7.40;;;10.10;99.90;;;;;;5034048;28;20107;-77
2021/12/24 07:27:52;;;;;;;11.98;6.45;;;10.10;99.90;;;;;;5033865;28;20018;-77
2021/12/24 07:30:18;;;;;;;12.57;6.57;;;10.20;99.90;;;;;;5032202;28;20402;-78
2021/12/24 07:32:44;;;;;;;12.25;6.93;;;10.20;99.90;;;;;;5033793;28;20030;-76
2021/12/24 07:35:10;;;;;;;16.30;7.43;;;10.20;99.90;;;;;;5033700;28;20497;-76
2021/12/24 07:37:37;;;;;;;26.20;16.17;;;10.20;99.90;;;;;;5033689;28;20087;-77
2021/12/24 07:40:04;;;;;;;28.55;17.55;;;10.20;99.90;;;;;;5033659;28;20026;-76
2021/12/24 07:42:30;;;;;;;13.63;7.05;;;10.20;99.90;;;;;;5033502;28;20028;-77
2021/12/24 07:44:56;;;;;;;12.10;6.72;;;10.30;99.90;;;;;;5033591;28;20017;-77
2021/12/24 07:47:32;;;;;;;10.40;6.28;;;10.20;99.90;;;;;;5033874;28;20062;-75
2021/12/24 07:50:04;;;;;;;11.57;6.80;;;10.20;99.90;;;;;;5034127;28;20100;-76
2021/12/24 07:52:31;;;;;;;13.63;7.22;;;10.30;99.90;;;;;;5033830;28;20393;-77
2021/12/24 07:54:57;;;;;;;32.22;20.92;;;10.30;99.90;;;;;;5033490;28;20473;-75
2021/12/24 07:57:24;;;;;;;9.60;5.85;;;10.30;99.90;;;;;;5033450;28;20482;-77
2021/12/24 07:59:50;;;;;;;10.93;6.15;;;10.30;99.90;;;;;;5033420;28;20395;-77
2021/12/24 08:02:18;;;;;;;15.02;9.00;;;10.30;99.90;;;;;;5033265;28;20108;-75
2021/12/24 08:04:46;;;;;;;12.63;7.03;;;10.30;99.90;;;;;;5033345;28;20382;-76
2021/12/24 08:07:13;;;;;;;12.80;6.65;;;10.30;99.90;;;;;;5033286;28;20440;-76
2021/12/24 08:09:38;;;;;;;11.50;6.85;;;10.30;99.90;;;;;;5033273;28;20025;-75
2021/12/24 08:12:10;;;;;;;13.65;8.00;;;10.30;99.90;;;;;;5033240;28;20389;-75
2021/12/24 08:14:36;;;;;;;13.93;8.38;;;10.30;99.90;;;;;;5033279;28;20032;-75
2021/12/24 08:17:03;;;;;;;11.38;7.15;;;10.30;99.90;;;;;;5033206;28;20025;-76
2021/12/24 08:19:29;;;;;;;13.35;7.65;;;10.30;99.90;;;;;;5033187;28;20532;-75
2021/12/24 08:21:56;;;;;;;13.35;6.85;;;10.30;99.90;;;;;;5033085;28;20053;-76
2021/12/24 08:24:22;;;;;;;15.30;10.25;;;10.40;99.90;;;;;;5031822;28;20512;-75
2021/12/24 08:26:48;;;;;;;13.35;7.25;;;10.40;99.90;;;;;;5033163;28;20025;-74
2021/12/24 08:29:13;;;;;;;12.52;7.82;;;10.40;99.90;;;;;;5033045;28;20129;-76
2021/12/24 08:31:39;;;;;;;12.45;7.93;;;10.40;99.90;;;;;;5033112;28;20064;-75
2021/12/24 08:34:06;;;;;;;17.77;14.30;;;10.50;99.90;;;;;;5033085;28;20397;-75
2021/12/24 08:36:32;;;;;;;12.15;9.20;;;10.40;99.90;;;;;;5033022;28;20498;-74
2021/12/24 08:38:58;;;;;;;12.43;6.93;;;10.40;99.90;;;;;;5033035;28;20021;-75
2021/12/24 08:41:25;;;;;;;14.52;8.18;;;10.40;99.90;;;;;;5032892;28;20056;-75
2021/12/24 08:43:51;;;;;;;13.25;7.65;;;10.40;99.90;;;;;;5032954;28;20025;-76
2021/12/24 08:46:17;;;;;;;12.50;7.32;;;10.40;99.90;;;;;;5033457;28;20079;-76
2021/12/24 08:48:42;;;;;;;13.68;7.95;;;10.40;99.90;;;;;;5032894;28;20021;-77
2021/12/24 08:51:08;;;;;;;14.18;8.30;;;10.40;99.90;;;;;;5032854;28;20025;-75
2021/12/24 08:53:34;;;;;;;20.65;13.60;;;10.40;99.90;;;;;;5033158;28;20036;-74
2021/12/24 08:55:59;;;;;;;15.35;11.80;;;10.40;99.90;;;;;;5032763;28;20025;-76
2021/12/24 08:58:25;;;;;;;32.75;29.27;;;10.50;99.90;;;;;;5033069;28;20018;-78
2021/12/24 09:00:51;;;;;;;12.57;8.18;;;10.50;99.90;;;;;;5031522;28;20462;-77
2021/12/24 09:03:17;;;;;;;19.40;14.13;;;10.50;99.90;;;;;;5032805;28;20029;-77
2021/12/24 09:05:42;;;;;;;19.35;16.15;;;10.50;99.90;;;;;;5033010;28;20025;-77
2021/12/24 09:08:08;;;;;;;15.07;11.07;;;10.50;99.90;;;;;;5032704;28;20104;-78
2021/12/24 09:10:34;;;;;;;15.05;9.68;;;10.50;99.90;;;;;;5033247;28;20010;-75
2021/12/24 09:13:01;;;;;;;14.77;10.50;;;10.50;99.90;;;;;;5033246;28;20022;-76
2021/12/24 09:15:29;;;;;;;14.57;9.23;;;10.50;99.90;;;;;;5032979;28;20489;-75
2021/12/24 09:17:59;;;;;;;16.33;9.10;;;10.50;99.90;;;;;;5036252;28;20025;-77
2021/12/24 09:20:31;;;;;;;14.50;9.52;;;10.50;99.90;;;;;;5036244;28;20025;-77
2021/12/24 09:22:59;;;;;;;17.52;10.85;;;10.50;99.90;;;;;;5036732;28;20488;-77
2021/12/24 09:25:26;;;;;;;18.23;12.77;;;10.50;99.90;;;;;;5036102;28;20021;-78
2021/12/24 09:27:52;;;;;;;18.95;12.50;;;10.50;99.90;;;;;;5036437;28;20029;-77
2021/12/24 09:30:18;;;;;;;20.85;13.73;;;10.60;99.90;;;;;;5035831;28;20041;-76
2021/12/24 09:32:44;;;;;;;16.65;11.18;;;10.50;99.90;;;;;;5036051;28;20044;-78
2021/12/24 09:35:11;;;;;;;19.25;12.10;;;10.50;99.90;;;;;;5035953;28;20045;-78
2021/12/24 09:42:48;;;;;;;16.50;10.23;;;10.70;99.90;;;;;;2930214;26;20082;-77
2021/12/24 09:45:14;;;;;;;15.73;10.50;;;10.80;99.90;;;;;;4997121;28;20027;-73
2021/12/24 09:47:41;;;;;;;16.45;10.05;;;10.70;99.90;;;;;;4995064;28;20038;-73
2021/12/24 09:50:11;;;;;;;20.23;12.27;;;10.70;99.90;;;;;;4996450;28;20033;-75
2021/12/24 09:52:41;;;;;;;19.17;13.80;;;10.70;99.90;;;;;;4995134;28;20081;-73
2021/12/24 09:55:13;;;;;;;17.40;10.93;;;10.70;99.90;;;;;;4996843;28;20022;-74
2021/12/24 09:57:39;;;;;;;17.10;10.40;;;10.70;99.90;;;;;;4996510;28;20109;-74
2021/12/24 10:00:07;;;;;;;16.05;10.10;;;10.70;99.90;;;;;;4996261;28;20110;-73
2021/12/24 10:02:41;;;;;;;13.60;8.98;;;10.70;99.90;;;;;;4996619;28;20027;-73
2021/12/24 10:05:25;;;;;;;14.82;10.32;;;10.60;99.90;;;;;;4994583;28;20394;-73
2021/12/24 10:07:51;;;;;;;16.88;9.68;;;10.60;99.90;;;;;;4996359;28;20157;-73
2021/12/24 10:10:25;;;;;;;16.48;10.60;;;10.60;99.90;;;;;;4996310;28;20474;-73
2021/12/24 10:12:52;;;;;;;15.23;9.52;;;10.50;99.90;;;;;;4994488;28;20445;-74
2021/12/24 10:15:17;;;;;;;14.52;9.85;;;10.60;99.90;;;;;;4995957;28;20019;-73
2021/12/24 10:17:43;;;;;;;14.82;9.27;;;10.70;99.90;;;;;;4995855;28;20049;-73
2021/12/24 10:20:17;;;;;;;14.95;8.52;;;10.70;99.90;;;;;;4995839;28;20048;-73
2021/12/24 10:22:46;;;;;;;15.75;10.00;;;10.60;99.90;;;;;;4996287;28;20447;-73
2021/12/24 10:25:13;;;;;;;13.48;8.93;;;10.60;99.90;;;;;;4995884;28;20026;-73
2021/12/24 10:27:41;;;;;;;14.43;8.77;;;10.70;99.90;;;;;;4994973;28;20018;-73
2021/12/24 10:30:21;;;;;;;14.30;9.00;;;10.70;99.90;;;;;;4995941;28;20033;-73
2021/12/24 10:32:48;;;;;;;14.88;9.63;;;10.70;99.90;;;;;;4994122;28;20034;-73
2021/12/24 10:35:27;;;;;;;13.20;8.57;;;10.70;99.90;;;;;;4995612;28;20093;-73
2021/12/24 10:38:11;;;;;;;13.25;8.60;;;10.70;99.90;;;;;;4995519;28;20030;-73
2021/12/24 10:40:47;;;;;;;13.70;8.90;;;10.70;99.90;;;;;;4995348;28;20077;-73
2021/12/24 10:43:28;;;;;;;14.70;9.00;;;10.60;99.90;;;;;;4993735;28;20137;-73
2021/12/24 10:46:19;;;;;;;14.20;8.57;;;10.60;99.90;;;;;;4995630;28;20030;-73
2021/12/24 10:49:03;;;;;;;14.82;9.55;;;10.60;99.90;;;;;;4993789;28;20441;-73
2021/12/24 10:54:14;;;;;;;15.32;9.15;;;10.70;99.90;;;;;;4994938;28;20033;-73
2021/12/24 10:56:41;;;;;;;15.75;10.20;;;10.70;99.90;;;;;;4995374;28;20022;-74
2021/12/24 10:59:06;;;;;;;15.15;9.88;;;10.80;99.90;;;;;;4995410;28;20030;-73
2021/12/24 11:01:32;;;;;;;13.82;9.43;;;10.70;99.90;;;;;;4995206;28;20026;-73
2021/12/24 11:03:58;;;;;;;15.43;9.00;;;10.80;99.90;;;;;;4994949;28;20046;-73
2021/12/24 11:06:29;;;;;;;15.68;9.70;;;10.90;99.90;;;;;;4994928;28;20023;-73
2021/12/24 11:08:56;;;;;;;15.18;10.07;;;10.90;99.90;;;;;;4994947;28;20098;-73
2021/12/24 11:11:22;;;;;;;14.95;9.27;;;11.00;99.90;;;;;;4994864;28;20026;-73
2021/12/24 11:13:48;;;;;;;18.35;10.38;;;11.10;99.90;;;;;;4994812;28;20125;-73
2021/12/24 11:16:19;;;;;;;15.00;9.27;;;11.20;99.90;;;;;;4995058;28;20089;-73
2021/12/24 11:19:02;;;;;;;13.70;9.40;;;11.10;99.90;;;;;;4995062;28;20034;-73
2021/12/24 11:21:30;;;;;;;13.30;8.82;;;11.10;99.90;;;;;;4994669;28;20026;-74
2021/12/24 11:23:56;;;;;;;13.50;9.27;;;11.10;99.90;;;;;;4994656;28;20105;-74
2021/12/24 11:26:28;;;;;;;16.83;9.68;;;11.10;99.90;;;;;;4994569;28;20050;-74
2021/12/24 11:28:54;;;;;;;14.95;9.23;;;11.10;99.90;;;;;;4995156;28;20463;-74
2021/12/24 11:31:28;;;;;;;14.27;9.32;;;11.10;99.90;;;;;;4994784;28;20057;-75
2021/12/24 11:33:55;;;;;;;16.45;10.13;;;11.10;99.90;;;;;;4994577;28;20041;-74
2021/12/24 11:36:24;;;;;;;14.10;9.82;;;11.20;99.90;;;;;;4994788;28;20057;-74
2021/12/24 11:38:52;;;;;;;15.73;9.45;;;11.20;99.90;;;;;;4994470;28;20022;-74
2021/12/24 11:41:20;;;;;;;16.52;10.63;;;11.30;99.90;;;;;;4994151;28;20026;-75
2021/12/24 11:43:49;;;;;;;15.13;10.38;;;11.40;99.90;;;;;;4994264;28;20189;-74
2021/12/24 11:46:18;;;;;;;14.15;8.32;;;11.50;99.90;;;;;;4994165;28;20038;-75
2021/12/24 11:48:47;;;;;;;13.32;9.00;;;11.50;99.90;;;;;;4994150;28;20025;-74
2021/12/24 11:51:19;;;;;;;16.17;9.95;;;11.40;99.90;;;;;;4994350;28;20101;-74
2021/12/24 11:53:46;;;;;;;15.63;9.68;;;11.30;99.90;;;;;;4994581;28;20102;-74
2021/12/24 11:56:16;;;;;;;15.13;9.65;;;11.30;99.90;;;;;;4994530;28;20038;-75
2021/12/24 11:58:45;;;;;;;28.73;18.55;;;11.20;99.90;;;;;;4994069;28;20019;-74
2021/12/24 12:01:14;;;;;;;19.88;13.25;;;11.20;99.90;;;;;;4994164;28;20454;-74
2021/12/24 12:03:52;;;;;;;18.52;12.60;;;11.30;99.90;;;;;;4993930;28;20038;-75
2021/12/24 12:06:17;;;;;;;14.18;8.80;;;11.30;99.90;;;;;;4993203;28;20073;-74
2021/12/24 12:08:48;;;;;;;16.25;11.32;;;11.20;99.90;;;;;;4993829;28;20422;-74
2021/12/24 12:11:13;;;;;;;19.08;12.52;;;11.30;99.90;;;;;;4994084;28;20027;-74
2021/12/24 12:13:51;;;;;;;17.77;12.55;;;11.20;99.90;;;;;;4993924;28;20033;-75
2021/12/24 12:16:25;;;;;;;19.02;13.65;;;11.20;99.90;;;;;;4994425;28;20026;-74
2021/12/24 12:19:17;;;;;;;21.17;14.57;;;11.10;99.90;;;;;;4993878;28;20032;-75
2021/12/24 12:22:12;;;;;;;15.55;10.85;;;11.20;99.90;;;;;;4994368;28;20419;-74
2021/12/24 12:24:59;;;;;;;14.88;9.63;;;11.10;99.90;;;;;;4992321;28;20065;-75
2021/12/24 12:27:52;;;;;;;14.98;9.48;;;11.10;99.90;;;;;;4994108;28;20037;-74
2021/12/24 12:30:21;;;;;;;14.40;9.82;;;11.00;99.90;;;;;;4994098;28;20066;-74
2021/12/24 12:32:48;;;;;;;14.65;10.32;;;11.00;99.90;;;;;;4993709;28;20030;-75
2021/12/24 12:35:15;;;;;;;14.93;8.93;;;11.00;99.90;;;;;;4993735;28;20069;-74
2021/12/24 12:38:01;;;;;;;17.17;10.52;;;11.00;99.90;;;;;;4992452;28;20430;-74
2021/12/24 12:40:30;;;;;;;15.38;9.23;;;11.00;99.90;;;;;;4993639;28;20560;-74
2021/12/24 12:43:02;;;;;;;12.32;8.60;;;11.00;99.90;;;;;;4993449;28;20130;-75
2021/12/24 12:45:35;;;;;;;12.77;8.20;;;11.00;99.90;;;;;;4993978;28;20037;-74
2021/12/24 12:48:08;;;;;;;16.35;9.10;;;11.10;99.90;;;;;;4993566;28;20019;-74
2021/12/24 12:50:35;;;;;;;13.95;8.75;;;11.10;99.90;;;;;;4994467;28;20037;-75
2021/12/24 12:53:41;;;;;;;13.60;8.05;;;11.20;99.90;;;;;;4997444;28;20442;-73
2021/12/24 12:56:14;;;;;;;13.95;8.55;;;11.20;99.90;;;;;;4956799;29;20188;-74
2021/12/24 12:58:43;;;;;;;14.23;8.77;;;11.10;99.90;;;;;;4956809;29;20500;-74
2021/12/24 13:01:14;;;;;;;15.43;9.43;;;11.20;99.90;;;;;;4979074;28;20038;-75
2021/12/24 13:03:55;;;;;;;13.40;8.63;;;11.30;99.90;;;;;;4997198;28;20073;-74
2021/12/24 13:06:22;;;;;;;13.43;8.90;;;11.50;99.90;;;;;;4997132;28;20029;-74
2021/12/24 13:08:49;;;;;;;16.25;8.73;;;11.40;99.90;;;;;;4997143;28;20026;-75
2021/12/24 13:11:18;;;;;;;14.75;9.68;;;11.50;99.90;;;;;;4997393;28;20386;-74
2021/12/24 13:13:56;;;;;;;15.55;9.25;;;11.50;99.90;;;;;;4997105;28;20076;-74
2021/12/24 13:16:33;;;;;;;14.65;9.55;;;11.40;99.90;;;;;;4997054;28;20023;-74
2021/12/24 13:19:23;;;;;;;13.85;9.50;;;11.40;99.90;;;;;;4997304;28;20026;-74
2021/12/24 13:25:11;;;;;;;16.13;11.13;;;11.30;99.90;;;;;;4997177;28;20036;-74
2021/12/24 13:27:44;;;;;;;15.55;10.27;;;11.30;99.90;;;;;;4996886;28;20030;-74
2021/12/24 13:30:19;;;;;;;15.80;9.45;;;11.30;99.90;;;;;;4997351;28;20022;-74
2021/12/24 13:32:48;;;;;;;15.80;9.60;;;11.40;99.90;;;;;;4997064;28;20520;-74
2021/12/24 13:35:20;;;;;;;13.60;8.75;;;11.30;99.90;;;;;;4996649;28;20390;-75
2021/12/24 13:37:46;;;;;;;15.48;8.95;;;11.30;99.90;;;;;;4996677;28;20030;-74
2021/12/24 13:40:21;;;;;;;12.32;8.13;;;11.40;99.90;;;;;;4996500;28;20489;-74
2021/12/24 13:42:52;;;;;;;14.23;8.30;;;11.40;99.90;;;;;;4996316;28;20042;-74
2021/12/24 13:45:20;;;;;;;14.52;7.40;;;11.40;99.90;;;;;;4997097;28;20026;-75
2021/12/24 13:47:57;;;;;;;22.40;13.52;;;11.40;99.90;;;;;;4996492;28;20529;-74
2021/12/24 13:54:30;;;;;;;17.95;13.93;;;11.40;99.90;;;;;;4996755;28;20076;-74
2021/12/24 13:55:55;;;;;;;18.08;14.52;;;11.40;99.90;;;;;;4996907;28;20206;-74
2021/12/24 13:58:22;;;;;;;17.40;13.10;;;11.40;99.90;;;;;;4996824;28;20547;-75
2021/12/24 14:00:51;;;;;;;20.23;14.98;;;11.50;99.90;;;;;;4996247;28;20109;-74
2021/12/24 14:03:23;;;;;;;13.25;9.55;;;11.50;99.90;;;;;;4996625;28;20026;-75
2021/12/24 14:05:52;;;;;;;15.68;10.85;;;11.50;99.90;;;;;;4996459;28;20023;-74
2021/12/24 14:08:22;;;;;;;16.98;12.23;;;11.40;99.90;;;;;;4996071;28;20073;-74
2021/12/24 14:10:58;;;;;;;13.77;9.52;;;11.50;99.90;;;;;;4996002;28;20380;-74
2021/12/24 14:13:27;;;;;;;15.13;10.20;;;11.50;99.90;;;;;;4996348;28;20026;-74
2021/12/24 14:24:12;;;;;;;16.45;10.45;;;11.50;99.90;;;;;;4996144;28;20257;-74
2021/12/24 14:27:01;;;;;;;13.50;9.18;;;11.50;99.90;;;;;;4996613;28;20081;-74
2021/12/24 14:29:29;;;;;;;15.38;9.90;;;11.50;99.90;;;;;;4996318;28;20077;-75
2021/12/24 14:32:05;;;;;;;16.80;10.80;;;11.50;99.90;;;;;;4995649;28;20505;-74
2021/12/24 14:34:39;;;;;;;14.45;9.68;;;11.50;99.90;;;;;;4995644;28;20029;-74
2021/12/24 14:37:23;;;;;;;12.80;9.85;;;11.50;99.90;;;;;;4995901;28;20033;-75